Time;durP1;ratioP1;P1;durP2;ratioP2;P2;SDS_P1;SDS_P2;PMS_P1;PMS_P2;Temp;Humidity;BMP_temperature;BMP_pressure;BME280_temperature;BME280_humidity;BME280_pressure;Samples;Min_cycle;Max_cycle;Signal;HPM_P1;HPM_P2
2021/04/15 00:00:30;;;;;;;1999.90;999.90;;;;;;;4.16;100.00;-18021.34;5057330;28;20447;-33
2021/04/15 00:03:19;;;;;;;1999.90;999.90;;;;;;;4.04;100.00;-18018.25;5057134;28;20541;-34
2021/04/15 00:06:11;;;;;;;1999.90;999.90;;;;;;;4.01;100.00;-18017.31;5057135;28;20777;-38
2021/04/15 00:08:59;;;;;;;1999.90;999.90;;;;;;;3.97;100.00;-18016.38;5057586;28;20471;-33
2021/04/15 00:11:51;;;;;;;1999.90;999.90;;;;;;;3.98;100.00;-18016.50;5057048;28;20921;-32
2021/04/15 00:14:38;;;;;;;1999.90;999.90;;;;;;;4.00;100.00;-18017.03;5057224;28;21000;-32
2021/04/15 00:17:24;;;;;;;1999.90;999.90;;;;;;;3.99;100.00;-18016.91;5057156;28;20462;-32
2021/04/15 00:20:11;;;;;;;1999.90;999.90;;;;;;;3.75;100.00;-18010.47;5057100;28;20545;-37
2021/04/15 00:22:57;;;;;;;1999.90;999.90;;;;;;;3.56;100.00;-18005.34;5057404;28;20896;-33
2021/04/15 00:25:44;;;;;;;1999.90;999.90;;;;;;;3.62;100.00;-18007.09;5056889;28;20908;-35
2021/04/15 00:28:30;;;;;;;1999.90;999.90;;;;;;;3.45;100.00;-18002.66;5056505;28;20863;-33
2021/04/15 00:31:20;;;;;;;1999.90;999.90;;;;;;;3.42;100.00;-18001.84;5056556;28;20462;-37
2021/04/15 00:34:07;;;;;;;1999.90;999.90;;;;;;;3.62;100.00;-18007.09;5057083;28;20454;-34
2021/04/15 00:36:53;;;;;;;1999.90;999.90;;;;;;;3.32;100.00;-17999.03;5056386;28;20525;-32
2021/04/15 00:39:39;;;;;;;1999.90;999.90;;;;;;;3.32;100.00;-17999.03;5056249;28;20582;-33
2021/04/15 00:42:25;;;;;;;1999.90;999.90;;;;;;;3.31;100.00;-17998.91;5056908;28;20451;-33
2021/04/15 00:45:17;;;;;;;1999.90;999.90;;;;;;;3.40;100.00;-18001.19;5056394;28;20995;-32
2021/04/15 00:48:07;;;;;;;1999.90;999.90;;;;;;;3.32;100.00;-17999.16;5056554;28;20467;-34
2021/04/15 00:50:56;;;;;;;1999.90;999.90;;;;;;;3.42;100.00;-18001.72;5056714;28;20443;-32
2021/04/15 00:53:47;;;;;;;1999.90;999.90;;;;;;;3.46;100.00;-18002.94;5056542;28;20447;-35
2021/04/15 00:56:33;;;;;;;1999.90;999.90;;;;;;;3.46;100.00;-18002.94;5056769;28;20803;-34
2021/04/15 00:59:22;;;;;;;1999.90;999.90;;;;;;;3.32;100.00;-17999.16;5056113;28;20443;-33
2021/04/15 01:02:11;;;;;;;1999.90;999.90;;;;;;;3.14;100.00;-17994.31;5056767;28;20443;-32
2021/04/15 01:05:00;;;;;;;1999.90;999.90;;;;;;;2.99;100.00;-17990.44;5056430;28;20649;-34
2021/04/15 01:07:46;;;;;;;1999.90;999.90;;;;;;;3.03;100.00;-17991.50;5056363;28;20537;-32
2021/04/15 01:10:35;;;;;;;1999.90;999.90;;;;;;;2.90;100.00;-17987.88;5056367;28;20451;-33
2021/04/15 01:13:41;;;;;;;1999.90;999.90;;;;;;;2.76;100.00;-17984.25;5056374;28;20770;-34
2021/04/15 01:16:33;;;;;;;1999.90;999.90;;;;;;;2.71;100.00;-17982.91;5056001;28;20454;-34
2021/04/15 01:19:51;;;;;;;1999.90;999.90;;;;;;;2.68;100.00;-17982.22;5055850;28;20734;-36
2021/04/15 01:22:52;;;;;;;1999.90;999.90;;;;;;;2.85;100.00;-17986.66;5056297;28;20450;-32
2021/04/15 01:26:07;;;;;;;1999.90;999.90;;;;;;;2.94;100.00;-17989.09;5055686;28;20545;-33
2021/04/15 01:29:04;;;;;;;1999.90;999.90;;;;;;;2.91;100.00;-17988.28;5056246;28;20781;-36
2021/04/15 01:32:11;;;;;;;1999.90;999.90;;;;;;;2.82;100.00;-17985.84;5056087;28;20459;-32
2021/04/15 01:35:01;;;;;;;1999.90;999.90;;;;;;;2.68;100.00;-17982.09;5055887;28;20921;-35
2021/04/15 01:37:52;;;;;;;1999.90;999.90;;;;;;;2.52;100.00;-17977.78;5055909;28;20442;-32
2021/04/15 01:40:43;;;;;;;1999.90;999.90;;;;;;;2.47;100.00;-17976.44;5055813;28;20447;-35
2021/04/15 01:43:33;;;;;;;1999.90;999.90;;;;;;;2.50;100.00;-17977.25;5055617;28;21012;-34
2021/04/15 01:46:27;;;;;;;1999.90;999.90;;;;;;;2.40;100.00;-17974.81;5055941;28;20724;-37
2021/04/15 01:49:18;;;;;;;1999.90;999.90;;;;;;;2.46;100.00;-17976.31;5058016;28;20573;-36
2021/04/15 01:52:09;;;;;;;1999.90;999.90;;;;;;;2.27;100.00;-17971.31;5060147;28;20447;-33
2021/04/15 01:55:00;;;;;;;1999.90;999.90;;;;;;;2.28;100.00;-17971.59;5059779;28;20877;-33
2021/04/15 01:57:55;;;;;;;1999.90;999.90;;;;;;;2.17;100.00;-17968.63;5059477;28;20462;-33
2021/04/15 02:00:46;;;;;;;1999.90;999.90;;;;;;;2.22;100.00;-17969.84;5059522;28;20521;-32
2021/04/15 02:03:36;;;;;;;1999.90;999.90;;;;;;;2.14;100.00;-17967.69;5059760;28;20915;-32
2021/04/15 02:06:26;;;;;;;1999.90;999.90;;;;;;;2.03;100.00;-17964.88;5059943;28;20482;-32
2021/04/15 02:09:16;;;;;;;1999.90;999.90;;;;;;;2.08;100.00;-17966.34;5059313;28;20880;-34
2021/04/15 02:12:05;;;;;;;1999.90;999.90;;;;;;;2.15;100.00;-17968.09;5059179;28;20554;-36
2021/04/15 02:15:03;;;;;;;1999.90;999.90;;;;;;;2.17;100.00;-17968.50;5059843;28;20446;-35
2021/04/15 02:17:50;;;;;;;1999.90;999.90;;;;;;;2.11;100.00;-17966.88;5059460;28;20505;-35
2021/04/15 02:20:37;;;;;;;1999.90;999.90;;;;;;;2.12;100.00;-17967.28;5059076;28;20560;-34
2021/04/15 02:23:28;;;;;;;1999.90;999.90;;;;;;;2.10;100.00;-17966.75;5059758;28;20893;-36
2021/04/15 02:26:18;;;;;;;1999.90;999.90;;;;;;;2.18;100.00;-17968.78;5059339;28;20482;-35
2021/04/15 02:29:09;;;;;;;1999.90;999.90;;;;;;;1.90;100.00;-17961.50;5058898;28;20446;-33
2021/04/15 02:32:00;;;;;;;1999.90;999.90;;;;;;;1.94;100.00;-17962.44;5059258;28;20438;-36
2021/04/15 02:34:52;;;;;;;1999.90;999.90;;;;;;;1.91;100.00;-17961.63;5059236;28;20458;-31
2021/04/15 02:37:43;;;;;;;1999.90;999.90;;;;;;;2.00;100.00;-17964.19;5059133;28;20753;-32
2021/04/15 02:40:33;;;;;;;1999.90;999.90;;;;;;;1.95;100.00;-17962.84;5059247;28;20443;-34
2021/04/15 02:43:25;;;;;;;1999.90;999.90;;;;;;;1.73;100.00;-17956.94;5058945;28;20710;-34
2021/04/15 02:46:17;;;;;;;1999.90;999.90;;;;;;;1.83;100.00;-17959.50;5058748;28;20533;-37
2021/04/15 02:49:06;;;;;;;1999.90;999.90;;;;;;;1.78;100.00;-17958.28;5059064;28;20446;-33
2021/04/15 02:51:58;;;;;;;1999.90;999.90;;;;;;;1.83;100.00;-17959.63;5059137;28;20621;-38
2021/04/15 02:54:52;;;;;;;1999.90;999.90;;;;;;;1.88;100.00;-17960.84;5058843;28;20458;-36
2021/04/15 02:57:42;;;;;;;1999.90;999.90;;;;;;;1.70;100.00;-17956.13;5059041;28;20509;-34
2021/04/15 03:00:31;;;;;;;1999.90;999.90;;;;;;;1.74;100.00;-17957.19;5057962;28;20744;-34
2021/04/15 03:03:24;;;;;;;1999.90;999.90;;;;;;;1.56;100.00;-17952.34;5059000;28;20474;-34
2021/04/15 03:06:13;;;;;;;1999.90;999.90;;;;;;;1.57;100.00;-17952.75;5058485;28;20482;-34
2021/04/15 03:09:05;;;;;;;1999.90;999.90;;;;;;;1.63;100.00;-17954.25;5058297;28;20718;-35
2021/04/15 03:11:55;;;;;;;1999.90;999.90;;;;;;;1.77;100.00;-17957.88;5058427;28;20498;-34
2021/04/15 03:14:47;;;;;;;1999.90;999.90;;;;;;;1.76;100.00;-17957.59;5058513;28;20545;-33
2021/04/15 03:17:35;;;;;;;1999.90;999.90;;;;;;;1.72;100.00;-17956.66;5058328;28;20537;-32
2021/04/15 03:20:32;;;;;;;1999.90;999.90;;;;;;;1.51;100.00;-17951.16;5058802;28;20463;-38
2021/04/15 03:23:38;;;;;;;1999.90;999.90;;;;;;;1.72;100.00;-17956.66;5058629;28;20458;-38
2021/04/15 03:26:40;;;;;;;1999.90;999.90;;;;;;;1.77;100.00;-17957.88;5058207;28;20486;-34
2021/04/15 03:29:31;;;;;;;1999.90;999.90;;;;;;;1.66;100.00;-17955.03;5058108;28;20523;-36
2021/04/15 03:32:21;;;;;;;1999.90;999.90;;;;;;;1.69;100.00;-17956.00;5058075;28;20444;-34
2021/04/15 03:35:13;;;;;;;1999.90;999.90;;;;;;;1.25;100.00;-17944.28;5058447;28;20669;-32
2021/04/15 03:38:03;;;;;;;1999.90;999.90;;;;;;;1.36;100.00;-17947.09;5057957;28;20462;-32
2021/04/15 03:40:55;;;;;;;1999.90;999.90;;;;;;;1.68;100.00;-17955.59;5057450;28;20443;-33
2021/04/15 03:43:45;;;;;;;1999.90;999.90;;;;;;;1.72;100.00;-17956.78;5057703;28;20447;-33
2021/04/15 03:46:35;;;;;;;1999.90;999.90;;;;;;;1.65;100.00;-17954.91;5057890;28;20660;-34
2021/04/15 03:49:26;;;;;;;1999.90;999.90;;;;;;;1.30;100.00;-17945.50;5057768;28;20447;-33
2021/04/15 03:52:18;;;;;;;1999.90;999.90;;;;;;;1.43;100.00;-17949.00;5057993;28;20448;-35
2021/04/15 03:55:19;;;;;;;1999.90;999.90;;;;;;;1.56;100.00;-17952.50;5057888;28;20443;-35
2021/04/15 03:58:10;;;;;;;1999.90;999.90;;;;;;;1.61;100.00;-17953.69;5057624;28;20536;-37
2021/04/15 04:01:01;;;;;;;1999.90;999.90;;;;;;;1.57;100.00;-17952.63;5057466;28;20582;-38
2021/04/15 04:03:59;;;;;;;1999.90;999.90;;;;;;;1.61;100.00;-17953.69;5057496;28;20438;-34
2021/04/15 04:06:49;;;;;;;1999.90;999.90;;;;;;;1.50;100.00;-17950.88;5057334;28;20502;-35
2021/04/15 04:09:42;;;;;;;1999.90;999.90;;;;;;;1.48;100.00;-17950.34;5057532;28;20845;-37
2021/04/15 04:12:35;;;;;;;1999.90;999.90;;;;;;;1.54;100.00;-17951.81;5056337;28;20490;-34
2021/04/15 04:15:26;;;;;;;1999.90;999.90;;;;;;;1.41;100.00;-17948.31;5057354;28;20537;-44
2021/04/15 04:18:18;;;;;;;1999.90;999.90;;;;;;;1.44;100.00;-17949.25;5057401;28;20447;-44
2021/04/15 04:21:13;;;;;;;1999.90;999.90;;;;;;;1.40;100.00;-17948.06;5057424;28;20526;-44
2021/04/15 04:24:08;;;;;;;1999.90;999.90;;;;;;;1.41;100.00;-17948.44;5057034;28;20446;-44
2021/04/15 04:27:02;;;;;;;1999.90;999.90;;;;;;;1.37;100.00;-17947.38;5056852;28;20998;-44
2021/04/15 04:29:52;;;;;;;1999.90;999.90;;;;;;;1.40;100.00;-17948.06;5056919;28;20710;-44
2021/04/15 04:32:41;;;;;;;1999.90;999.90;;;;;;;1.40;100.00;-17948.19;5056525;28;20454;-44
2021/04/15 04:35:30;;;;;;;1999.90;999.90;;;;;;;1.40;100.00;-17948.06;5057428;28;20458;-44
2021/04/15 04:38:19;;;;;;;1999.90;999.90;;;;;;;1.40;100.00;-17948.06;5056664;28;20539;-44
2021/04/15 04:41:09;;;;;;;1999.90;999.90;;;;;;;1.47;100.00;-17949.94;5056462;28;20527;-44
2021/04/15 04:44:01;;;;;;;1999.90;999.90;;;;;;;0.96;100.00;-17936.47;5056645;28;20446;-44
2021/04/15 04:46:51;;;;;;;1999.90;999.90;;;;;;;1.21;100.00;-17943.06;5056614;28;20475;-44
2021/04/15 04:49:41;;;;;;;1999.90;999.90;;;;;;;1.48;100.00;-17950.34;5056182;28;20447;-44
2021/04/15 04:52:32;;;;;;;1999.90;999.90;;;;;;;1.58;100.00;-17953.03;5056492;28;20542;-45
2021/04/15 04:55:26;;;;;;;1999.90;999.90;;;;;;;1.61;100.00;-17953.69;5056127;28;20885;-45
2021/04/15 04:58:14;;;;;;;1999.90;999.90;;;;;;;1.58;100.00;-17952.91;5056440;28;20923;-45
2021/04/15 05:01:00;;;;;;;1999.90;999.90;;;;;;;1.56;100.00;-17952.50;5055956;28;20443;-44
2021/04/15 05:03:46;;;;;;;1999.90;999.90;;;;;;;1.70;100.00;-17956.25;5056057;28;20893;-45
2021/04/15 05:06:35;;;;;;;1999.90;999.90;;;;;;;1.82;100.00;-17959.34;5055942;28;20928;-45
2021/04/15 05:09:26;;;;;;;1999.90;999.90;;;;;;;1.91;100.00;-17961.78;5055855;28;20458;-45
2021/04/15 05:12:18;;;;;;;1999.90;999.90;;;;;;;1.98;100.00;-17963.53;5056276;28;20762;-44
2021/04/15 05:15:06;;;;;;;1999.90;999.90;;;;;;;1.93;100.00;-17962.19;5056276;28;20738;-44
2021/04/15 05:17:52;;;;;;;1999.90;999.90;;;;;;;2.11;100.00;-17966.88;5055452;28;20471;-45
2021/04/15 05:20:39;;;;;;;1999.90;999.90;;;;;;;2.23;100.00;-17970.13;5056140;28;20509;-45
2021/04/15 05:23:34;;;;;;;1999.90;999.90;;;;;;;2.33;100.00;-17972.81;5055190;28;20573;-45
2021/04/15 05:26:23;;;;;;;1999.90;999.90;;;;;;;2.42;100.00;-17975.38;5055984;28;20498;-45
2021/04/15 05:29:19;;;;;;;1999.90;999.90;;;;;;;2.67;100.00;-17981.81;5054533;28;20841;-44
2021/04/15 05:32:12;;;;;;;1999.90;999.90;;;;;;;3.94;100.00;-18015.44;5055183;28;20451;-44
2021/04/15 05:35:00;;;;;;;1999.90;999.90;;;;;;;5.43;100.00;-18055.06;5055833;28;20486;-44
2021/04/15 05:37:46;;;;;;;1999.90;999.90;;;;;;;5.69;100.00;-18061.75;5055997;28;20992;-44
2021/04/15 05:40:32;;;;;;;1999.90;999.90;;;;;;;6.93;100.00;-18094.63;5055646;28;20869;-44
2021/04/15 05:43:31;;;;;;;1999.90;999.90;;;;;;;7.58;100.00;-18111.78;5055605;28;20200;-44
2021/04/15 05:46:22;;;;;;;1999.90;999.90;;;;;;;7.97;100.00;-18122.09;5055455;28;20267;-44
2021/04/15 05:49:15;;;;;;;1999.90;999.90;;;;;;;7.95;100.00;-18121.56;5055159;28;20270;-44
2021/04/15 05:52:08;;;;;;;1999.90;999.90;;;;;;;7.49;100.00;-18109.50;5055449;28;20216;-44
2021/04/15 05:54:57;;;;;;;1999.90;999.90;;;;;;;8.18;100.00;-18127.59;5056060;28;20204;-44
2021/04/15 05:57:50;;;;;;;1999.90;999.90;;;;;;;8.79;99.77;-18143.81;5055770;28;20493;-44
2021/04/15 06:00:41;;;;;;;1999.90;999.90;;;;;;;8.78;94.52;-18143.41;5055343;28;20205;-44
2021/04/15 06:03:38;;;;;;;1999.90;999.90;;;;;;;8.23;98.39;-18128.94;5055982;28;20209;-44
2021/04/15 06:06:30;;;;;;;1999.90;999.90;;;;;;;8.53;99.28;-18136.84;5055921;28;20627;-44
2021/04/15 06:09:18;;;;;;;1999.90;999.90;;;;;;;8.67;97.39;-18140.47;5055772;28;20251;-44
2021/04/15 06:12:14;;;;;;;1999.90;999.90;;;;;;;8.76;97.71;-18142.88;5055210;28;20237;-44
2021/04/15 06:15:06;;;;;;;1999.90;999.90;;;;;;;9.01;93.13;-18149.44;5055550;28;20200;-44
2021/04/15 06:18:24;;;;;;;1999.90;999.90;;;;;;;9.12;90.17;-18152.50;5054619;28;20207;-44
2021/04/15 06:21:21;;;;;;;1999.90;999.90;;;;;;;8.94;93.22;-18147.69;5055053;28;20205;-44
2021/04/15 06:24:14;;;;;;;1999.90;999.90;;;;;;;8.52;96.07;-18136.59;5055678;28;20546;-44
2021/04/15 06:27:04;;;;;;;1999.90;999.90;;;;;;;9.40;94.44;-18159.88;5035993;28;20325;-44
2021/04/15 06:30:04;;;;;;;1999.90;999.90;;;;;;;9.97;89.65;-18175.00;5035831;28;20686;-44
2021/04/15 06:32:54;;;;;;;1999.90;999.90;;;;;;;10.47;82.74;-18187.97;5034545;28;20615;-44
2021/04/15 06:35:45;;;;;;;1999.90;999.90;;;;;;;9.59;84.93;-18164.81;5035719;28;20213;-44
2021/04/15 06:38:41;;;;;;;1999.90;999.90;;;;;;;9.94;92.79;-18174.19;5038392;28;20205;-44
2021/04/15 06:41:53;;;;;;;1999.90;999.90;;;;;;;10.27;87.46;-18182.75;5038632;28;20614;-44
2021/04/15 06:45:04;;;;;;;1999.90;999.90;;;;;;;10.83;82.75;-18197.47;5038350;28;20194;-44
2021/04/15 06:48:22;;;;;;;1999.90;999.90;;;;;;;11.37;81.75;-18211.75;5038880;28;20611;-44
2021/04/15 06:51:38;;;;;;;1999.90;999.90;;;;;;;12.38;76.18;-18238.34;5046939;28;20652;-44
2021/04/15 06:54:38;;;;;;;1999.90;999.90;;;;;;;12.27;74.08;-18235.41;5038569;28;20277;-44
2021/04/15 06:57:46;;;;;;;1999.90;999.90;;;;;;;10.13;88.23;-18179.13;5038637;28;20190;-44
2021/04/15 07:00:56;;;;;;;1999.90;999.90;;;;;;;9.04;93.16;-18150.38;5038769;28;20209;-45
2021/04/15 07:04:04;;;;;;;1999.90;999.90;;;;;;;8.06;98.82;-18124.38;5038076;28;20614;-44
2021/04/15 07:06:59;;;;;;;1999.90;999.90;;;;;;;9.01;100.00;-18149.44;5038238;28;20268;-44
2021/04/15 07:10:31;;;;;;;1999.90;999.90;;;;;;;8.88;97.35;-18146.09;5038492;28;20619;-44
2021/04/15 07:13:54;;;;;;;1999.90;999.90;;;;;;;8.15;100.00;-18126.94;5003157;28;20367;-44
2021/04/15 07:17:03;;;;;;;1999.90;999.90;;;;;;;8.97;100.00;-18148.63;5038033;28;20201;-44
2021/04/15 07:20:21;;;;;;;1999.90;999.90;;;;;;;9.55;95.41;-18163.88;5037596;28;20216;-44
2021/04/15 07:24:04;;;;;;;1999.90;999.90;;;;;;;8.18;100.00;-18127.75;5038817;28;20205;-44
2021/04/15 07:27:07;;;;;;;1999.90;999.90;;;;;;;8.49;100.00;-18135.78;4976345;28;20388;-44
2021/04/15 07:30:25;;;;;;;1999.90;999.90;;;;;;;8.25;100.00;-18129.47;5037343;28;20700;-44
2021/04/15 07:33:37;;;;;;;1999.90;999.90;;;;;;;9.23;100.00;-18155.31;5037536;28;20200;-44
2021/04/15 07:37:01;;;;;;;1999.90;999.90;;;;;;;10.14;94.46;-18179.41;5037867;28;20277;-44
2021/04/15 07:40:44;;;;;;;1999.90;999.90;;;;;;;9.46;96.07;-18161.47;5014629;28;20679;-45
2021/04/15 07:44:00;;;;;;;1999.90;999.90;;;;;;;9.73;88.92;-18168.56;4920275;28;20219;-45
2021/04/15 07:46:56;;;;;;;1999.90;999.90;;;;;;;8.09;100.00;-18125.31;5037193;28;20384;-45
2021/04/15 07:50:25;;;;;;;1999.90;999.90;;;;;;;9.48;100.00;-18161.88;5037514;28;20571;-45
2021/04/15 07:53:40;;;;;;;1999.90;999.90;;;;;;;10.58;89.00;-18190.91;5037476;28;20602;-45
2021/04/15 07:57:12;;;;;;;1999.90;999.90;;;;;;;7.84;100.00;-18118.63;5037436;28;20197;-44
2021/04/15 08:00:20;;;;;;;1999.90;999.90;;;;;;;10.62;91.68;-18192.13;5004280;28;20611;-45
2021/04/15 08:03:39;;;;;;;1999.90;999.90;;;;;;;10.75;82.47;-18195.47;5054012;28;20210;-45
2021/04/15 08:06:46;;;;;;;1999.90;999.90;;;;;;;10.38;85.35;-18185.69;5056709;28;20658;-45
2021/04/15 08:10:00;;;;;;;1999.90;999.90;;;;;;;10.24;87.31;-18181.94;5057064;28;20189;-34
2021/04/15 08:13:15;;;;;;;1999.90;999.90;;;;;;;10.26;88.78;-18182.63;5036622;28;20347;-37
2021/04/15 08:16:17;;;;;;;1999.90;999.90;;;;;;;8.82;99.67;-18144.63;5045430;28;20198;-34
2021/04/15 08:19:22;;;;;;;1999.90;999.90;;;;;;;9.69;91.13;-18167.50;5046443;28;20767;-34
2021/04/15 08:22:22;;;;;;;1999.90;999.90;;;;;;;10.02;83.64;-18176.31;5056234;28;20622;-33
2021/04/15 08:25:16;;;;;;;1999.90;999.90;;;;;;;10.45;79.20;-18187.56;5056266;28;20638;-35
2021/04/15 08:28:47;;;;;;;1999.90;999.90;;;;;;;10.21;84.43;-18181.28;5055911;28;20323;-34
2021/04/15 08:31:51;;;;;;;1999.90;999.90;;;;;;;10.83;76.23;-18197.59;5028924;28;20213;-34
2021/04/15 08:34:50;;;;;;;1999.90;999.90;;;;;;;10.97;74.47;-18201.34;5036958;28;20208;-38
2021/04/15 08:38:15;;;;;;;1999.90;999.90;;;;;;;9.86;80.91;-18171.91;5036046;28;20201;-35
2021/04/15 08:41:11;;;;;;;1999.90;999.90;;;;;;;11.07;77.50;-18203.88;4955662;29;20368;-32
2021/04/15 08:44:53;;;;;;;1999.90;999.90;;;;;;;9.61;87.68;-18165.50;5036017;28;20508;-33
2021/04/15 08:47:52;;;;;;;1999.90;999.90;;;;;;;8.54;94.48;-18137.25;4993722;28;20285;-37
2021/04/15 08:50:49;;;;;;;1999.90;999.90;;;;;;;7.99;94.11;-18122.50;4995008;28;20198;-35
2021/04/15 08:54:03;;;;;;;1999.90;999.90;;;;;;;8.23;97.36;-18129.06;4994523;28;20203;-36
2021/04/15 08:56:55;;;;;;;1999.90;999.90;;;;;;;8.48;93.91;-18135.63;4994384;28;20207;-35
2021/04/15 08:59:53;;;;;;;1999.90;999.90;;;;;;;8.59;93.15;-18138.47;5045502;28;20227;-32
2021/04/15 09:02:53;;;;;;;1999.90;999.90;;;;;;;9.18;89.15;-18154.13;5055663;28;20625;-37
2021/04/15 09:06:00;;;;;;;1999.90;999.90;;;;;;;10.81;76.55;-18196.94;5055103;28;20201;-33
2021/04/15 09:09:07;;;;;;;1999.90;999.90;;;;;;;9.25;81.53;-18156.00;5055615;28;20670;-34
2021/04/15 09:12:17;;;;;;;1999.90;999.90;;;;;;;11.90;75.91;-18225.66;5055383;28;20503;-35
2021/04/15 09:15:15;;;;;;;1999.90;999.90;;;;;;;11.07;69.33;-18203.75;5055066;28;20273;-36
2021/04/15 09:18:10;;;;;;;1999.90;999.90;;;;;;;8.64;81.97;-18139.78;5055309;28;20195;-34
2021/04/15 09:21:12;;;;;;;1999.90;999.90;;;;;;;9.22;84.77;-18155.06;5054865;28;20274;-33
2021/04/15 09:24:13;;;;;;;1999.90;999.90;;;;;;;11.09;76.43;-18204.41;5055431;28;20208;-33
2021/04/15 09:27:25;;;;;;;1999.90;999.90;;;;;;;12.18;70.38;-18233.00;5052398;28;20336;-36
2021/04/15 09:30:21;;;;;;;1999.90;999.90;;;;;;;12.12;65.80;-18231.41;5054764;28;20642;-33
2021/04/15 09:33:16;;;;;;;1999.90;999.90;;;;;;;11.72;67.94;-18221.13;5055683;28;20209;-33
2021/04/15 09:36:08;;;;;;;1999.90;999.90;;;;;;;10.52;78.08;-18189.31;5054670;28;20204;-35
2021/04/15 09:39:13;;;;;;;1999.90;999.90;;;;;;;13.18;70.43;-18259.44;5054500;28;20216;-32
2021/04/15 09:42:24;;;;;;;1999.90;999.90;;;;;;;12.87;63.84;-18251.28;5035936;28;20213;-37
2021/04/15 09:45:31;;;;;;;1999.90;999.90;;;;;;;12.77;64.58;-18248.75;5050482;28;20211;-38
2021/04/15 09:48:50;;;;;;;1999.90;999.90;;;;;;;12.74;64.17;-18247.81;5055389;28;20589;-35
2021/04/15 09:52:10;;;;;;;1999.90;999.90;;;;;;;9.71;76.60;-18167.91;5055771;28;20440;-34
2021/04/15 09:55:13;;;;;;;1999.90;999.90;;;;;;;9.42;79.44;-18160.28;5054522;28;20411;-35
2021/04/15 09:58:15;;;;;;;1999.90;999.90;;;;;;;10.80;76.93;-18196.78;5055307;28;20525;-36
2021/04/15 10:01:08;;;;;;;1999.90;999.90;;;;;;;10.96;69.69;-18200.94;5055316;28;20217;-37
2021/04/15 10:04:05;;;;;;;1999.90;999.90;;;;;;;11.04;68.03;-18203.22;5054960;28;20207;-35
2021/04/15 10:07:01;;;;;;;1999.90;999.90;;;;;;;9.48;75.96;-18161.88;5054877;28;20199;-35
2021/04/15 10:10:01;;;;;;;1999.90;999.90;;;;;;;9.50;77.58;-18162.41;5054236;28;20197;-32
2021/04/15 10:12:58;;;;;;;1999.90;999.90;;;;;;;9.60;80.68;-18165.09;5059572;28;20527;-34
2021/04/15 10:15:52;;;;;;;1999.90;999.90;;;;;;;9.56;81.47;-18164.03;5058696;28;20197;-34
2021/04/15 10:18:59;;;;;;;1999.90;999.90;;;;;;;10.51;77.37;-18189.16;5058927;28;20197;-38
2021/04/15 10:21:55;;;;;;;1999.90;999.90;;;;;;;12.71;65.68;-18247.03;5058597;28;20202;-37
2021/04/15 10:24:47;;;;;;;1999.90;999.90;;;;;;;10.84;70.99;-18197.72;5059024;28;20351;-34
2021/04/15 10:28:15;;;;;;;1999.90;999.90;;;;;;;11.24;70.83;-18208.28;5058325;28;20222;-34
2021/04/15 10:31:39;;;;;;;1999.90;999.90;;;;;;;11.28;70.62;-18209.34;4977093;28;20269;-36
2021/04/15 10:34:43;;;;;;;1999.90;999.90;;;;;;;12.06;61.70;-18230.06;5036157;28;20268;-35
2021/04/15 10:37:59;;;;;;;1999.90;999.90;;;;;;;12.03;62.83;-18229.25;5058564;28;20688;-35
2021/04/15 10:41:17;;;;;;;1999.90;999.90;;;;;;;12.47;62.58;-18240.63;5057479;28;20212;-34
2021/04/15 10:44:25;;;;;;;1999.90;999.90;;;;;;;11.46;63.42;-18214.03;5033133;28;20652;-35
2021/04/15 10:47:29;;;;;;;1999.90;999.90;;;;;;;10.92;62.91;-18200.00;5058133;28;20493;-36
2021/04/15 10:50:29;;;;;;;1999.90;999.90;;;;;;;10.58;64.49;-18191.03;5058206;28;20205;-36
2021/04/15 10:53:41;;;;;;;1999.90;999.90;;;;;;;10.21;59.04;-18181.16;5057246;28;20205;-35
2021/04/15 10:56:45;;;;;;;1999.90;999.90;;;;;;;11.80;53.91;-18223.13;5057816;28;20244;-36
2021/04/15 10:59:38;;;;;;;1999.90;999.90;;;;;;;12.88;53.30;-18251.41;5058879;28;20198;-35
2021/04/15 11:02:31;;;;;;;1999.90;999.90;;;;;;;10.37;60.35;-18185.28;5057599;28;20209;-36
2021/04/15 11:05:25;;;;;;;1999.90;999.90;;;;;;;9.80;60.96;-18170.44;5058073;28;20205;-32
2021/04/15 11:08:21;;;;;;;1999.90;999.90;;;;;;;9.62;60.57;-18165.75;5052543;28;20492;-35
2021/04/15 11:11:11;;;;;;;1999.90;999.90;;;;;;;10.35;59.65;-18184.91;5038475;28;20623;-33
2021/04/15 11:14:03;;;;;;;1999.90;999.90;;;;;;;10.70;55.90;-18194.25;5048119;28;20488;-34
2021/04/15 11:16:52;;;;;;;1999.90;999.90;;;;;;;11.03;62.49;-18202.81;5058102;28;20233;-35
2021/04/15 11:19:43;;;;;;;1999.90;999.90;;;;;;;12.53;59.66;-18242.22;5058191;28;20484;-37
2021/04/15 11:22:35;;;;;;;1999.90;999.90;;;;;;;12.19;54.10;-18233.41;5037138;28;20201;-34
2021/04/15 11:25:27;;;;;;;1999.90;999.90;;;;;;;11.20;54.88;-18207.34;5037973;28;20256;-35
2021/04/15 11:28:30;;;;;;;1999.90;999.90;;;;;;;11.13;56.00;-18205.47;5054927;28;20481;-33
2021/04/15 11:31:32;;;;;;;1999.90;999.90;;;;;;;13.70;42.43;-18273.16;5056599;28;20597;-38
2021/04/15 11:34:25;;;;;;;1999.90;999.90;;;;;;;11.90;45.36;-18225.78;5057600;28;20262;-34
2021/04/15 11:37:19;;;;;;;1999.90;999.90;;;;;;;10.09;49.37;-18177.94;5057185;28;20236;-34
2021/04/15 11:40:30;;;;;;;1999.90;999.90;;;;;;;10.55;52.13;-18190.09;5057245;28;20493;-34
2021/04/15 11:43:34;;;;;;;1999.90;999.90;;;;;;;10.98;54.90;-18201.47;5057923;28;20309;-33
2021/04/15 11:46:27;;;;;;;1999.90;999.90;;;;;;;10.77;57.56;-18196.00;5047041;28;20290;-35
2021/04/15 11:49:22;;;;;;;1999.90;999.90;;;;;;;10.72;57.81;-18194.66;5057350;28;20338;-32
2021/04/15 11:52:20;;;;;;;1999.90;999.90;;;;;;;10.85;55.38;-18198.00;5056381;28;20199;-34
2021/04/15 11:55:15;;;;;;;1999.90;999.90;;;;;;;12.58;51.08;-18243.69;5056352;28;20224;-34
2021/04/15 11:58:03;;;;;;;1999.90;999.90;;;;;;;12.46;46.99;-18240.34;5056865;28;20390;-36
2021/04/15 12:00:58;;;;;;;1999.90;999.90;;;;;;;12.29;46.60;-18235.94;5057349;28;20213;-33
2021/04/15 12:03:58;;;;;;;1999.90;999.90;;;;;;;12.03;46.93;-18229.13;5056762;28;20292;-35
2021/04/15 12:06:53;;;;;;;1999.90;999.90;;;;;;;11.04;48.23;-18203.06;5056687;28;20201;-36
2021/04/15 12:09:39;;;;;;;1999.90;999.90;;;;;;;11.11;47.34;-18204.94;5056094;28;20608;-35
2021/04/15 12:12:31;;;;;;;1999.90;999.90;;;;;;;11.95;47.74;-18227.00;5040027;28;20244;-34
2021/04/15 12:15:25;;;;;;;1999.90;999.90;;;;;;;10.85;47.44;-18198.00;5056742;28;20607;-35
2021/04/15 12:18:19;;;;;;;1999.90;999.90;;;;;;;12.40;47.78;-18238.88;5056454;28;20235;-36
2021/04/15 12:21:17;;;;;;;1999.90;999.90;;;;;;;13.61;43.22;-18270.63;5056843;28;20196;-33
2021/04/15 12:24:11;;;;;;;1999.90;999.90;;;;;;;13.62;41.10;-18271.03;5056732;28;20292;-35
2021/04/15 12:27:04;;;;;;;1999.90;999.90;;;;;;;13.52;41.07;-18268.38;5057047;28;20610;-35
2021/04/15 12:29:57;;;;;;;1999.90;999.90;;;;;;;11.81;42.80;-18223.38;5056175;28;20209;-32
2021/04/15 12:32:52;;;;;;;1999.90;999.90;;;;;;;12.12;43.90;-18231.53;5055956;28;20298;-32
2021/04/15 12:35:46;;;;;;;1999.90;999.90;;;;;;;11.28;43.77;-18209.34;5056443;28;20205;-35
2021/04/15 12:38:36;;;;;;;1999.90;999.90;;;;;;;11.13;44.64;-18205.34;5056295;28;20267;-34
2021/04/15 12:41:26;;;;;;;1999.90;999.90;;;;;;;12.23;43.55;-18234.34;5055928;28;20209;-36
2021/04/15 12:44:19;;;;;;;1999.90;999.90;;;;;;;11.70;43.01;-18220.44;5056495;28;20339;-34
2021/04/15 12:47:06;;;;;;;1999.90;999.90;;;;;;;10.89;45.75;-18199.19;5055572;28;20251;-35
2021/04/15 12:49:55;;;;;;;1999.90;999.90;;;;;;;12.26;46.17;-18235.13;5055426;28;20661;-34
2021/04/15 12:52:42;;;;;;;1999.90;999.90;;;;;;;13.10;41.99;-18257.44;5055729;28;20832;-38
2021/04/15 12:55:29;;;;;;;1999.90;999.90;;;;;;;13.18;41.97;-18259.44;5055685;28;20602;-35
2021/04/15 12:58:17;;;;;;;1999.90;999.90;;;;;;;13.25;41.19;-18261.31;5055185;28;20315;-36